Time;durP1;ratioP1;P1;durP2;ratioP2;P2;SDS_P1;SDS_P2;PMS_P1;PMS_P2;Temp;Humidity;BMP_temperature;BMP_pressure;BME280_temperature;BME280_humidity;BME280_pressure;Samples;Min_cycle;Max_cycle;Signal;HPM_P1;HPM_P2
2023/10/23 00:01:39;;;;;;;4.68;3.88;;;;;;;6.71;100.00;101175.81;6092884;23;20032;-74
2023/10/23 00:04:06;;;;;;;3.20;2.63;;;;;;;6.66;100.00;101167.69;6115909;23;20088;-74
2023/10/23 00:06:32;;;;;;;3.80;3.33;;;;;;;6.63;100.00;101178.78;6143369;23;20348;-74
2023/10/23 00:08:58;;;;;;;4.70;2.80;;;;;;;6.58;100.00;101176.03;6070089;23;20020;-76
2023/10/23 00:11:26;;;;;;;3.58;2.75;;;;;;;6.53;100.00;101175.91;6117414;23;20025;-75
2023/10/23 00:13:52;;;;;;;4.28;3.00;;;;;;;6.52;100.00;101176.97;6093589;23;20018;-74
2023/10/23 00:16:18;;;;;;;8.23;2.78;;;;;;;6.50;100.00;101184.34;6117689;23;20017;-74
2023/10/23 00:18:45;;;;;;;5.55;3.25;;;;;;;6.45;100.00;101181.59;6093529;23;20013;-75
2023/10/23 00:21:11;;;;;;;;;;;;;;;6.42;100.00;101182.84;6093213;23;20017;-74
2023/10/23 00:23:36;;;;;;;5.38;3.47;;;;;;;6.36;100.00;101181.09;6069380;23;19920;-73
2023/10/23 00:26:02;;;;;;;4.00;2.92;;;;;;;6.34;100.00;101174.41;6120226;23;20040;-75
2023/10/23 00:28:28;;;;;;;4.78;3.05;;;;;;;6.32;100.00;101187.13;6120570;23;20005;-74
2023/10/23 00:30:54;;;;;;;3.28;2.67;;;;;;;6.30;100.00;101187.38;6096718;23;20014;-77
2023/10/23 00:33:20;;;;;;;3.67;2.50;;;;;;;6.24;100.00;101189.09;6096285;23;20013;-75
2023/10/23 00:35:46;;;;;;;4.85;2.55;;;;;;;6.19;100.00;101191.63;6070361;23;20048;-75
2023/10/23 00:38:12;;;;;;;;;;;;;;;6.18;100.00;101187.34;6072297;23;20021;-79
2023/10/23 00:40:38;;;;;;;3.97;2.95;;;;;;;6.18;100.00;101175.91;6118894;23;20366;-74
2023/10/23 00:43:21;;;;;;;5.40;3.08;;;;;;;6.18;100.00;101192.69;6119668;23;20009;-73
2023/10/23 00:45:59;;;;;;;4.32;2.75;;;;;;;6.17;100.00;101176.94;6094798;23;20420;-74
2023/10/23 00:48:26;;;;;;;4.28;2.88;;;;;;;6.15;100.00;101195.78;6071496;23;20016;-75
2023/10/23 00:50:56;;;;;;;4.93;2.90;;;;;;;6.11;100.00;101185.84;6095469;23;20052;-74
2023/10/23 00:53:25;;;;;;;3.90;2.95;;;;;;;6.09;100.00;101193.22;6097912;23;20024;-77
2023/10/23 00:55:54;;;;;;;4.13;2.92;;;;;;;6.04;100.00;101185.94;6096668;23;20028;-76
2023/10/23 00:58:24;;;;;;;4.28;2.80;;;;;;;6.01;100.00;101191.69;6122574;23;20014;-74
2023/10/23 01:00:51;;;;;;;3.83;2.58;;;;;;;5.98;100.00;101192.19;6073183;23;20021;-78
2023/10/23 01:03:17;;;;;;;6.30;2.83;;;;;;;5.92;100.00;101188.56;6071512;23;20017;-73
2023/10/23 01:05:43;;;;;;;3.50;2.55;;;;;;;5.86;100.00;101185.97;6120913;23;20741;-75
2023/10/23 01:08:09;;;;;;;6.22;2.80;;;;;;;5.84;100.00;101188.88;6096456;23;20010;-74
2023/10/23 01:10:35;;;;;;;4.15;3.20;;;;;;;5.83;100.00;101189.91;6096119;23;20020;-75
2023/10/23 01:13:06;;;;;;;5.55;2.33;;;;;;;5.80;100.00;101189.53;6098353;23;20023;-75
2023/10/23 01:15:32;;;;;;;4.55;3.03;;;;;;;5.80;100.00;101192.19;6119915;23;20017;-77
2023/10/23 01:17:59;;;;;;;4.28;2.60;;;;;;;5.80;100.00;101189.53;6097233;23;20061;-76
2023/10/23 01:20:28;;;;;;;3.58;2.85;;;;;;;5.78;100.00;101197.75;6072416;23;20527;-76
2023/10/23 01:23:01;;;;;;;3.85;2.72;;;;;;;5.78;100.00;101199.59;6073094;23;20100;-73
2023/10/23 01:25:28;;;;;;;5.82;3.30;;;;;;;5.78;100.00;101196.94;6096687;23;20395;-76
2023/10/23 01:27:56;;;;;;;5.38;3.40;;;;;;;5.77;100.00;101205.97;6097675;23;20020;-77
2023/10/23 01:30:21;;;;;;;5.53;3.45;;;;;;;5.76;100.00;101205.16;6097664;23;20084;-76
2023/10/23 01:32:49;;;;;;;5.22;3.40;;;;;;;5.73;100.00;101205.59;6073355;23;20049;-78
2023/10/23 01:35:20;;;;;;;4.47;3.25;;;;;;;5.70;100.00;101206.84;6097370;23;20048;-78
2023/10/23 01:37:47;;;;;;;4.32;3.10;;;;;;;5.70;100.00;101206.84;6097020;23;20021;-77
2023/10/23 01:40:13;;;;;;;4.65;2.95;;;;;;;5.71;100.00;101212.97;6096197;23;20017;-78
2023/10/23 01:42:41;;;;;;;4.35;3.20;;;;;;;5.70;100.00;101217.50;6096533;23;20009;-79
2023/10/23 01:45:07;;;;;;;3.80;3.38;;;;;;;5.70;100.00;101217.50;6096235;23;20029;-77
2023/10/23 01:47:34;;;;;;;4.57;3.53;;;;;;;5.71;100.00;101219.09;6072755;23;20100;-75
2023/10/23 01:50:00;;;;;;;3.83;3.05;;;;;;;5.68;100.00;101214.22;6096774;23;20021;-74
2023/10/23 01:52:26;;;;;;;3.90;3.00;;;;;;;5.68;100.00;101224.84;6072290;23;20017;-75
2023/10/23 01:54:52;;;;;;;4.32;3.20;;;;;;;5.66;100.00;101224.28;6096619;23;20654;-74
2023/10/23 01:57:19;;;;;;;8.20;4.00;;;;;;;5.65;100.00;101219.19;6120836;23;20013;-74
2023/10/23 01:59:45;;;;;;;4.20;3.80;;;;;;;5.63;100.00;101215.97;6096182;23;20067;-74
2023/10/23 02:02:11;;;;;;;6.22;3.78;;;;;;;5.62;100.00;101207.19;6095152;23;20044;-74
2023/10/23 02:04:39;;;;;;;5.18;3.75;;;;;;;5.61;100.00;101213.50;6095536;23;20044;-75
2023/10/23 02:07:05;;;;;;;4.80;3.58;;;;;;;5.58;100.00;101219.28;6071949;23;20543;-74
2023/10/23 02:09:33;;;;;;;4.45;3.35;;;;;;;5.58;100.00;101219.28;6120601;23;20017;-75
2023/10/23 02:12:00;;;;;;;5.82;3.47;;;;;;;5.60;100.00;101227.81;6071882;23;20017;-74
2023/10/23 02:14:27;;;;;;;4.90;3.40;;;;;;;5.66;100.00;101231.44;6096724;23;20029;-74
2023/10/23 02:16:52;;;;;;;;;;;;;;;5.63;100.00;101222.09;6093744;23;20022;-73
2023/10/23 02:19:18;;;;;;;4.68;3.60;;;;;;;5.59;100.00;101231.53;6073041;23;19919;-74
2023/10/23 02:21:49;;;;;;;4.32;3.38;;;;;;;5.59;100.00;101236.84;6119984;23;20026;-74
2023/10/23 02:24:22;;;;;;;4.55;3.58;;;;;;;5.59;100.00;101233.38;6097512;23;20017;-74
2023/10/23 02:26:48;;;;;;;6.75;4.60;;;;;;;5.60;100.00;101238.47;6090958;23;20017;-74
2023/10/23 02:29:14;;;;;;;8.38;4.30;;;;;;;5.62;100.00;101233.75;6120090;23;20029;-74
2023/10/23 02:31:40;;;;;;;5.07;3.97;;;;;;;5.60;100.00;101243.78;6095122;23;20025;-75
2023/10/23 02:34:07;;;;;;;6.13;3.70;;;;;;;5.61;100.00;101245.38;6096288;23;20084;-74
2023/10/23 02:36:33;;;;;;;5.28;3.40;;;;;;;5.61;100.00;101245.38;6096255;23;20084;-74
2023/10/23 02:38:59;;;;;;;5.32;4.13;;;;;;;5.61;100.00;101242.72;6072547;23;20032;-74
2023/10/23 02:41:29;;;;;;;;;;;;;;;5.62;100.00;101246.19;6097579;23;20024;-74
2023/10/23 02:43:56;;;;;;;6.65;5.47;;;;;;;5.62;100.00;101249.69;6119371;23;19912;-74
2023/10/23 02:46:22;;;;;;;7.43;5.60;;;;;;;5.62;100.00;101252.34;6071464;23;20021;-73
2023/10/23 02:48:49;;;;;;;7.70;6.05;;;;;;;5.62;100.00;101246.19;6071567;23;20014;-78
2023/10/23 02:51:15;;;;;;;7.10;5.22;;;;;;;5.60;100.00;101251.75;6070871;23;20547;-76
2023/10/23 02:53:40;;;;;;;5.85;4.60;;;;;;;5.58;100.00;101253.00;6119455;23;20013;-74
2023/10/23 02:56:12;;;;;;;6.88;5.38;;;;;;;5.57;100.00;101257.53;6095206;23;20006;-74
2023/10/23 02:58:38;;;;;;;5.90;4.53;;;;;;;5.52;100.00;101252.06;6095591;23;20040;-74
2023/10/23 03:01:25;;;;;;;5.60;4.30;;;;;;;5.54;100.00;101255.28;6095054;23;20452;-74
2023/10/23 03:03:51;;;;;;;6.70;4.70;;;;;;;5.52;100.00;101252.06;6119044;23;20309;-73
2023/10/23 03:06:17;;;;;;;7.20;4.10;;;;;;;5.50;100.00;101253.31;6071436;23;20021;-74
2023/10/23 03:08:43;;;;;;;7.78;5.20;;;;;;;5.46;100.00;101252.94;6095020;23;20013;-74
2023/10/23 03:11:09;;;;;;;6.15;4.20;;;;;;;5.43;100.00;101254.22;6119987;23;20017;-74
2023/10/23 03:13:35;;;;;;;;;;;;;;;5.41;100.00;101256.25;6096553;23;20014;-74
2023/10/23 03:16:02;;;;;;;6.95;5.10;;;;;;;5.38;100.00;101263.88;6095104;23;19912;-74
2023/10/23 03:18:28;;;;;;;7.15;5.05;;;;;;;5.37;100.00;101260.41;6095705;23;20417;-76
2023/10/23 03:21:01;;;;;;;7.40;5.07;;;;;;;5.36;100.00;101263.28;6119020;23;20487;-74
2023/10/23 03:23:28;;;;;;;5.70;4.68;;;;;;;5.35;100.00;101261.66;6096094;23;20072;-74
2023/10/23 03:25:54;;;;;;;7.05;4.40;;;;;;;5.34;100.00;101268.00;6118627;23;20017;-74
2023/10/23 03:28:20;;;;;;;5.78;4.75;;;;;;;5.32;100.00;101268.22;6096541;23;20013;-74
2023/10/23 03:30:46;;;;;;;6.53;4.30;;;;;;;5.29;100.00;101266.03;6094937;23;20017;-74
2023/10/23 03:33:12;;;;;;;6.68;4.18;;;;;;;5.29;100.00;101267.88;6072557;23;20013;-74
2023/10/23 03:35:42;;;;;;;5.30;4.35;;;;;;;5.25;100.00;101278.13;6120366;23;20083;-74
2023/10/23 03:38:08;;;;;;;5.53;3.97;;;;;;;5.24;100.00;101270.38;6096782;23;20048;-73
2023/10/23 03:40:33;;;;;;;5.72;4.00;;;;;;;5.22;100.00;101256.50;6095379;23;20021;-73
2023/10/23 03:42:59;;;;;;;5.25;3.92;;;;;;;5.21;100.00;101276.91;6095122;23;20065;-75
2023/10/23 03:45:26;;;;;;;5.68;4.47;;;;;;;5.20;100.00;101280.63;6070352;23;20017;-74
2023/10/23 03:47:52;;;;;;;6.75;4.68;;;;;;;5.20;100.00;101275.28;6146180;23;20659;-73
2023/10/23 03:50:18;;;;;;;7.63;4.78;;;;;;;5.17;100.00;101273.91;6095114;23;20021;-74
2023/10/23 03:52:43;;;;;;;7.53;5.25;;;;;;;5.17;100.00;101281.06;6070819;23;20033;-73
2023/10/23 03:55:10;;;;;;;5.95;4.22;;;;;;;5.18;100.00;101288.81;6095017;23;20819;-74
2023/10/23 03:57:36;;;;;;;6.25;4.95;;;;;;;5.17;100.00;101281.06;6095596;23;20024;-74
2023/10/23 04:00:02;;;;;;;6.40;4.65;;;;;;;5.18;100.00;101282.69;6094952;23;20013;-74
2023/10/23 04:02:37;;;;;;;7.13;4.15;;;;;;;5.15;100.00;101286.59;6097639;23;20032;-74
2023/10/23 04:05:03;;;;;;;6.07;4.60;;;;;;;5.15;100.00;101291.91;6118707;23;20018;-74
2023/10/23 04:07:29;;;;;;;5.43;3.80;;;;;;;5.17;100.00;101295.16;6119119;23;20044;-75
2023/10/23 04:09:55;;;;;;;6.25;4.32;;;;;;;5.18;100.00;101294.13;6094150;23;20098;-74
2023/10/23 04:12:20;;;;;;;9.90;5.03;;;;;;;5.20;100.00;101297.34;6119322;23;20499;-75
2023/10/23 04:14:46;;;;;;;6.82;4.82;;;;;;;5.22;100.00;101299.81;6118670;23;20091;-74
2023/10/23 04:17:12;;;;;;;7.35;5.13;;;;;;;5.18;100.00;101294.13;6047380;23;20467;-74
2023/10/23 04:19:39;;;;;;;7.85;5.15;;;;;;;5.20;100.00;101301.84;6070820;23;20010;-75
2023/10/23 04:22:04;;;;;;;9.43;5.47;;;;;;;5.15;100.00;101294.56;6094345;23;20028;-74
2023/10/23 04:24:30;;;;;;;7.38;4.63;;;;;;;5.12;100.00;101295.00;6119836;23;20017;-74
2023/10/23 04:26:55;;;;;;;6.35;4.38;;;;;;;5.09;100.00;101289.31;6120994;23;20018;-73
2023/10/23 04:29:21;;;;;;;5.80;4.40;;;;;;;5.07;100.00;101292.19;6073700;23;20076;-74
2023/10/23 04:31:46;;;;;;;9.02;5.25;;;;;;;5.04;100.00;101292.63;6072427;23;20021;-76
2023/10/23 04:34:14;;;;;;;7.10;5.25;;;;;;;5.04;100.00;101295.28;6096557;23;20018;-73
2023/10/23 04:36:40;;;;;;;7.60;5.60;;;;;;;5.01;100.00;101289.59;6073521;23;20051;-73
2023/10/23 04:39:05;;;;;;;5.80;4.30;;;;;;;4.99;100.00;101289.81;6121120;23;20360;-75
2023/10/23 04:41:31;;;;;;;7.22;4.93;;;;;;;4.96;100.00;101294.75;6120548;23;20064;-75
2023/10/23 04:43:58;;;;;;;8.05;5.80;;;;;;;4.94;100.00;101292.31;6120005;23;20009;-74
2023/10/23 04:46:23;;;;;;;6.00;4.25;;;;;;;4.91;100.00;101292.75;6096161;23;20051;-74
2023/10/23 04:48:49;;;;;;;7.90;5.75;;;;;;;4.90;100.00;101286.63;6095993;23;20045;-73
2023/10/23 04:51:14;;;;;;;7.38;4.90;;;;;;;4.88;100.00;101294.00;6073056;23;20526;-75
2023/10/23 04:53:40;;;;;;;8.60;5.18;;;;;;;4.89;100.00;101289.50;6121726;23;20052;-74
2023/10/23 04:56:06;;;;;;;7.00;4.80;;;;;;;4.86;100.00;101289.94;6120489;23;20013;-73
2023/10/23 04:58:32;;;;;;;6.18;4.32;;;;;;;4.86;100.00;101290.75;6097224;23;20435;-74
2023/10/23 05:00:57;;;;;;;7.07;4.78;;;;;;;4.82;100.00;101300.19;6095968;23;20014;-75
2023/10/23 05:03:23;;;;;;;6.70;4.20;;;;;;;4.83;100.00;101295.69;6121106;23;20249;-75
2023/10/23 05:05:49;;;;;;;7.72;5.80;;;;;;;4.80;100.00;101296.91;6146436;23;20009;-74
2023/10/23 05:08:15;;;;;;;7.50;5.28;;;;;;;4.76;100.00;101300.25;6121422;23;20113;-75
2023/10/23 05:10:40;;;;;;;7.53;5.45;;;;;;;4.76;100.00;101292.28;6096055;23;20027;-74
2023/10/23 05:13:06;;;;;;;7.07;5.00;;;;;;;4.76;100.00;101306.34;6120502;23;20017;-75
2023/10/23 05:15:31;;;;;;;7.93;5.30;;;;;;;4.77;100.00;101307.97;6096434;23;20792;-73
2023/10/23 05:17:57;;;;;;;7.32;5.43;;;;;;;4.79;100.00;101315.72;6096242;23;20068;-74
2023/10/23 05:20:22;;;;;;;8.65;4.90;;;;;;;4.78;100.00;101316.75;6146183;23;20013;-74
2023/10/23 05:22:48;;;;;;;9.40;6.10;;;;;;;4.80;100.00;101327.94;6095252;23;20040;-74
2023/10/23 05:25:13;;;;;;;7.85;5.05;;;;;;;4.75;100.00;101320.66;6095826;23;20025;-74
2023/10/23 05:27:39;;;;;;;8.43;6.03;;;;;;;4.78;100.00;101328.19;6072969;23;20017;-74
2023/10/23 05:30:05;;;;;;;8.65;5.80;;;;;;;4.80;100.00;101331.41;6071659;23;20022;-74
2023/10/23 05:32:34;;;;;;;7.38;4.88;;;;;;;4.80;100.00;101325.28;6095312;23;20025;-74
2023/10/23 05:35:01;;;;;;;10.13;6.25;;;;;;;4.79;100.00;101332.44;6146755;23;20045;-74
2023/10/23 05:37:27;;;;;;;8.30;5.65;;;;;;;4.74;100.00;101329.66;6072360;23;20048;-73
2023/10/23 05:39:53;;;;;;;9.02;6.00;;;;;;;4.71;100.00;101331.91;6096072;23;20112;-74
2023/10/23 05:42:18;;;;;;;8.90;4.97;;;;;;;4.69;100.00;101328.69;6095812;23;20013;-74
2023/10/23 05:44:44;;;;;;;7.82;5.32;;;;;;;4.67;100.00;101331.53;6120686;23;20100;-73
2023/10/23 05:47:10;;;;;;;9.25;5.70;;;;;;;4.65;100.00;101331.75;6120421;23;20594;-74
2023/10/23 05:49:35;;;;;;;10.63;6.63;;;;;;;4.69;100.00;101331.31;6096493;23;20715;-73
2023/10/23 05:52:03;;;;;;;9.65;6.18;;;;;;;4.75;100.00;101341.09;6096125;23;20021;-74
2023/10/23 05:54:30;;;;;;;12.20;6.85;;;;;;;4.82;100.00;101347.16;6097234;23;20017;-75
2023/10/23 05:56:55;;;;;;;12.50;7.38;;;;;;;4.80;100.00;101350.00;6120380;23;20459;-74
2023/10/23 05:59:22;;;;;;;21.88;6.78;;;;;;;4.85;100.00;101346.69;6097306;23;20064;-74
2023/10/23 06:01:47;;;;;;;23.10;7.38;;;;;;;4.87;100.00;101356.06;6119171;23;20014;-74
2023/10/23 06:04:13;;;;;;;11.63;6.72;;;;;;;4.89;100.00;101364.63;6094232;23;20025;-73
2023/10/23 06:06:38;;;;;;;9.65;6.68;;;;;;;4.89;100.00;101375.25;6096313;23;20490;-73
2023/10/23 06:09:04;;;;;;;14.43;7.85;;;;;;;4.91;100.00;101373.19;6072105;23;20013;-73
2023/10/23 06:11:30;;;;;;;11.40;6.60;;;;;;;4.93;100.00;101380.94;6121280;23;20013;-74
2023/10/23 06:13:56;;;;;;;13.07;6.38;;;;;;;4.93;100.00;101380.94;6094828;23;20013;-74
2023/10/23 06:16:22;;;;;;;11.63;6.03;;;;;;;4.94;100.00;101379.88;6095524;23;20663;-74
2023/10/23 06:18:47;;;;;;;9.38;6.82;;;;;;;4.95;100.00;101394.81;6096146;23;20014;-74
2023/10/23 06:21:13;;;;;;;11.88;6.18;;;;;;;4.96;100.00;101390.31;6095830;23;20024;-74
2023/10/23 06:23:40;;;;;;;7.78;5.25;;;;;;;4.97;100.00;101397.25;6072001;23;20036;-75
2023/10/23 06:26:07;;;;;;;10.35;5.70;;;;;;;4.99;100.00;101396.00;6095257;23;20029;-74
2023/10/23 06:28:34;;;;;;;11.30;5.75;;;;;;;5.00;100.00;101394.97;6072551;23;20499;-74
2023/10/23 06:31:10;;;;;;;11.38;5.95;;;;;;;5.01;100.00;101391.28;6119329;23;20476;-74
2023/10/23 06:33:38;;;;;;;16.65;5.70;;;;;;;5.03;100.00;101386.56;6072579;23;20052;-74
2023/10/23 06:36:07;;;;;;;8.70;5.60;;;;;;;5.04;100.00;101398.81;6119982;23;20120;-73
2023/10/23 06:38:33;;;;;;;8.35;5.70;;;;;;;5.06;100.00;101396.75;6096177;23;20013;-74
2023/10/23 06:41:06;;;;;;;7.78;5.40;;;;;;;5.06;100.00;101402.06;6095778;23;20113;-74
2023/10/23 06:43:32;;;;;;;11.13;5.90;;;;;;;5.08;100.00;101399.19;6091342;23;20017;-74
2023/10/23 06:45:58;;;;;;;22.25;6.57;;;;;;;5.08;100.00;101400.03;6119195;23;20013;-74
2023/10/23 06:48:23;;;;;;;16.98;6.20;;;;;;;5.11;100.00;101404.88;6071050;23;20014;-74
2023/10/23 06:50:50;;;;;;;10.93;6.47;;;;;;;5.11;100.00;101404.88;6096500;23;20017;-74
2023/10/23 06:53:16;;;;;;;20.77;7.13;;;;;;;5.15;100.00;101408.75;6096609;23;20040;-74
2023/10/23 06:55:52;;;;;;;11.38;6.75;;;;;;;5.19;100.00;101412.56;6095671;23;20459;-74
2023/10/23 06:58:19;;;;;;;34.00;6.95;;;;;;;5.22;100.00;101408.69;6096281;23;20013;-75
2023/10/23 07:00:46;;;;;;;17.02;6.18;;;;;;;5.25;100.00;101410.91;6147004;23;20197;-75
2023/10/23 07:03:12;;;;;;;11.40;6.57;;;;;;;5.27;100.00;101408.00;6095063;23;20014;-75
2023/10/23 07:05:39;;;;;;;55.38;8.32;;;;;;;5.31;100.00;101411.88;6095252;23;20181;-74
2023/10/23 07:08:05;;;;;;;15.70;6.85;;;;;;;5.34;100.00;101414.06;6145663;23;20012;-74
2023/10/23 07:10:32;;;;;;;;;;;;;;;5.38;100.00;101417.94;6120436;23;20021;-74
2023/10/23 07:12:58;;;;;;;15.80;5.90;;;;;;;5.42;100.00;101417.28;6095450;23;19908;-75
2023/10/23 07:15:24;;;;;;;10.27;6.25;;;;;;;5.48;100.00;101426.19;6071066;23;20542;-74
2023/10/23 07:17:49;;;;;;;16.65;6.93;;;;;;;5.49;100.00;101427.84;6095306;23;20499;-74
2023/10/23 07:20:17;;;;;;;15.77;6.55;;;;;;;5.52;100.00;101435.38;6094346;23;20045;-74
2023/10/23 07:22:43;;;;;;;47.42;8.10;;;;;;;5.55;100.00;101436.78;6119816;23;20097;-74
2023/10/23 07:25:10;;;;;;;35.60;8.50;;;;;;;5.57;100.00;101435.53;6070124;23;20332;-75
2023/10/23 07:27:39;;;;;;;34.08;7.65;;;;;;;5.58;100.00;101447.78;6119660;23;20013;-75
2023/10/23 07:30:05;;;;;;;42.40;7.88;;;;;;;5.59;100.00;101437.97;6070018;23;20091;-73
2023/10/23 07:32:31;;;;;;;;;;;;;;;5.65;100.00;101443.22;6094253;23;20024;-74
2023/10/23 07:34:56;;;;;;;44.65;8.18;;;;;;;5.67;100.00;101443.81;6118889;23;19908;-76
2023/10/23 07:37:22;;;;;;;43.50;7.85;;;;;;;5.71;100.00;101452.97;6069528;23;20022;-74
2023/10/23 07:39:48;;;;;;;;;;;;;;;5.75;100.00;101448.00;6118633;23;20013;-74
2023/10/23 07:42:15;;;;;;;30.95;8.10;;;;;;;5.80;100.00;101450.03;6091452;23;19917;-75
2023/10/23 07:44:44;;;;;;;30.13;9.20;;;;;;;5.84;100.00;101451.22;6093735;23;20029;-74
2023/10/23 07:47:09;;;;;;;35.10;9.35;;;;;;;5.87;100.00;101450.75;6093397;23;20009;-75
2023/10/23 07:49:35;;;;;;;22.48;8.20;;;;;;;5.89;100.00;101451.34;6118486;23;20412;-74
2023/10/23 07:52:00;;;;;;;15.57;8.65;;;;;;;5.96;100.00;101463.59;6118047;23;20024;-75
2023/10/23 07:54:26;;;;;;;26.98;9.30;;;;;;;6.01;100.00;101462.91;6119479;23;20120;-75
2023/10/23 07:56:55;;;;;;;21.08;10.13;;;;;;;6.05;100.00;101466.75;6119976;23;20017;-74
2023/10/23 07:59:21;;;;;;;19.95;9.18;;;;;;;6.14;100.00;101468.09;6120406;23;20036;-73
2023/10/23 08:01:47;;;;;;;34.05;9.55;;;;;;;6.18;100.00;101469.28;6120118;23;20072;-73
2023/10/23 08:04:13;;;;;;;19.85;9.85;;;;;;;6.18;100.00;101466.63;6094801;23;20014;-74
2023/10/23 08:06:38;;;;;;;18.52;9.32;;;;;;;6.25;100.00;101470.00;6095690;23;20009;-74
2023/10/23 08:09:06;;;;;;;22.75;10.52;;;;;;;6.31;100.00;101470.16;6120844;23;20044;-73
2023/10/23 08:11:32;;;;;;;25.40;10.38;;;;;;;6.35;100.00;101464.16;6072158;23;20045;-74
2023/10/23 08:13:59;;;;;;;25.42;10.73;;;;;;;6.42;100.00;101453.41;6096072;23;20351;-74
2023/10/23 08:16:25;;;;;;;33.00;12.10;;;;;;;6.51;100.00;101462.75;6094627;23;20096;-74
2023/10/23 08:18:50;;;;;;;30.83;10.93;;;;;;;6.55;100.00;101459.38;6146378;23;20010;-75
2023/10/23 08:21:16;;;;;;;21.77;10.95;;;;;;;6.57;100.00;101461.84;6071038;23;20028;-74
2023/10/23 08:23:44;;;;;;;32.75;11.10;;;;;;;6.61;100.00;101467.50;6121150;23;20017;-74
2023/10/23 08:26:10;;;;;;;35.05;11.50;;;;;;;6.66;100.00;101473.78;6146026;23;20017;-74
2023/10/23 08:28:35;;;;;;;44.90;12.00;;;;;;;6.74;100.00;101476.13;6072539;23;20511;-73
2023/10/23 08:31:01;;;;;;;20.27;9.52;;;;;;;6.81;100.00;101484.03;6119950;23;20748;-75
2023/10/23 08:33:26;;;;;;;18.10;9.80;;;;;;;6.90;100.00;101471.19;6121223;23;20068;-74
2023/10/23 08:35:52;;;;;;;18.25;9.98;;;;;;;6.94;100.00;101475.03;6095887;23;20102;-74
2023/10/23 08:38:18;;;;;;;17.42;9.38;;;;;;;6.96;100.00;101471.09;6096010;23;20025;-74
2023/10/23 08:40:44;;;;;;;19.60;10.95;;;;;;;7.03;100.00;101477.13;6096048;23;20045;-75
2023/10/23 08:43:09;;;;;;;22.77;10.57;;;;;;;7.09;100.00;101486.88;6092323;23;20017;-74
2023/10/23 08:45:35;;;;;;;17.05;9.40;;;;;;;7.15;100.00;101474.50;6071263;23;20021;-74
2023/10/23 08:48:00;;;;;;;22.77;11.18;;;;;;;7.21;100.00;101476.25;6096657;23;20009;-73
2023/10/23 08:50:26;;;;;;;16.75;10.20;;;;;;;7.19;100.00;101478.34;6095142;23;20013;-74
2023/10/23 08:53:05;;;;;;;15.90;9.35;;;;;;;7.25;100.00;101477.44;6095879;23;20014;-74
2023/10/23 08:55:31;;;;;;;20.05;11.52;;;;;;;7.32;100.00;101478.13;6093403;23;20017;-75
2023/10/23 08:57:59;;;;;;;17.50;9.88;;;;;;;7.34;100.00;101477.91;6120301;23;20017;-74
2023/10/23 09:00:25;;;;;;;19.92;10.68;;;;;;;7.42;100.00;101474.09;6095822;23;20522;-76
2023/10/23 09:02:51;;;;;;;16.83;10.80;;;;;;;7.52;100.00;101471.63;6071899;23;20009;-74
2023/10/23 09:05:18;;;;;;;19.33;10.77;;;;;;;7.62;100.00;101472.69;6094292;23;20020;-74
2023/10/23 09:07:45;;;;;;;18.73;9.80;;;;;;;7.72;100.00;101473.97;6095947;23;20021;-74
2023/10/23 09:10:11;;;;;;;16.73;9.75;;;;;;;7.83;100.00;101483.81;6094710;23;20019;-74
2023/10/23 09:12:39;;;;;;;19.45;11.68;;;;;;;7.95;100.00;101476.63;6072263;23;20053;-75
2023/10/23 09:15:21;;;;;;;19.48;10.93;;;;;;;8.08;100.00;101475.56;6147502;23;20021;-74
2023/10/23 09:17:52;;;;;;;20.15;11.50;;;;;;;8.19;100.00;101474.72;6097691;23;20020;-74
2023/10/23 09:20:23;;;;;;;19.10;12.52;;;;;;;8.24;100.00;101476.69;6049266;23;20027;-73
2023/10/23 09:22:50;;;;;;;14.82;9.00;;;;;;;8.37;100.00;101476.44;6073210;23;20048;-74
2023/10/23 09:25:20;;;;;;;15.05;9.70;;;;;;;8.46;100.00;101475.81;6071987;23;20448;-73
2023/10/23 09:27:46;;;;;;;15.93;10.48;;;;;;;8.52;100.00;101478.59;6097340;23;20092;-74
2023/10/23 09:30:13;;;;;;;14.88;8.90;;;;;;;8.59;100.00;101474.75;6120756;23;20087;-74
2023/10/23 09:32:40;;;;;;;12.95;8.73;;;;;;;8.62;100.00;101466.28;6122100;23;20005;-74
2023/10/23 09:35:07;;;;;;;14.65;8.45;;;;;;;8.66;100.00;101463.91;6096099;23;20029;-73
2023/10/23 09:37:33;;;;;;;14.80;8.35;;;;;;;8.73;100.00;101459.25;6073545;23;20013;-74
2023/10/23 09:40:11;;;;;;;15.57;8.75;;;;;;;8.87;100.00;101460.56;6122445;23;20448;-74
2023/10/23 09:42:38;;;;;;;11.60;7.35;;;;;;;8.91;100.00;101461.72;6096606;23;20024;-73
2023/10/23 09:45:04;;;;;;;14.15;8.13;;;;;;;8.98;100.00;101457.03;6121542;23;20020;-75
2023/10/23 09:47:32;;;;;;;13.00;8.00;;;;;;;9.07;100.00;101460.09;6074242;23;20014;-76
2023/10/23 09:49:59;;;;;;;13.23;8.55;;;;;;;9.17;100.00;101464.81;6072861;23;20098;-74
2023/10/23 09:52:26;;;;;;;14.57;8.13;;;;;;;9.24;100.00;101471.63;6096653;23;20060;-74
2023/10/23 09:55:03;;;;;;;11.90;7.13;;;;;;;9.38;100.00;101461.41;6097601;23;20009;-74
2023/10/23 09:57:53;;;;;;;11.23;7.93;;;;;;;9.40;100.00;101470.00;6097465;23;20088;-74
2023/10/23 10:00:19;;;;;;;12.95;7.50;;;;;;;9.48;100.00;101469.59;6114998;23;20017;-78
2023/10/23 10:02:55;;;;;;;9.90;6.68;;;;;;;9.61;100.00;101470.31;6122059;23;20356;-75
2023/10/23 10:05:27;;;;;;;11.77;7.68;;;;;;;9.71;100.00;101463.25;6095072;23;20018;-73
2023/10/23 10:08:02;;;;;;;10.80;7.07;;;;;;;9.81;100.00;101470.59;6073576;23;20025;-75
2023/10/23 10:10:30;;;;;;;10.75;6.60;;;;;;;9.85;100.00;101466.38;6121122;23;20546;-75
2023/10/23 10:12:56;;;;;;;10.88;6.78;;;;;;;9.91;100.00;101465.41;6097842;23;20041;-76
2023/10/23 10:15:24;;;;;;;10.18;5.60;;;;;;;9.96;100.00;101456.63;6147677;23;20025;-75
2023/10/23 10:17:50;;;;;;;10.00;6.00;;;;;;;10.07;100.00;101456.50;6074500;23;20100;-75
2023/10/23 10:20:21;;;;;;;9.35;6.75;;;;;;;10.17;100.00;101453.16;6121054;23;20017;-75
2023/10/23 10:22:56;;;;;;;9.18;6.63;;;;;;;10.23;100.00;101462.91;6073095;23;20024;-75
2023/10/23 10:25:23;;;;;;;10.27;6.13;;;;;;;10.30;100.00;101460.03;6071685;23;20124;-75
2023/10/23 10:28:02;;;;;;;8.80;5.85;;;;;;;10.32;100.00;101455.22;6147780;23;20029;-74
2023/10/23 10:31:01;;;;;;;9.77;5.80;;;;;;;10.42;100.00;101459.88;6072513;23;20018;-75
2023/10/23 10:33:31;;;;;;;8.43;5.70;;;;;;;10.46;100.00;101451.09;6034679;23;20142;-73
2023/10/23 10:35:59;;;;;;;8.85;6.43;;;;;;;10.47;100.00;101449.22;6096976;23;20022;-74
2023/10/23 10:38:29;;;;;;;9.02;6.03;;;;;;;10.53;100.00;101443.69;6097306;23;20017;-74
2023/10/23 10:41:05;;;;;;;10.63;6.03;;;;;;;10.58;100.00;101443.75;6073534;23;20021;-75
2023/10/23 10:43:39;;;;;;;8.98;6.07;;;;;;;10.62;100.00;101436.00;6121974;23;20010;-75
2023/10/23 10:46:22;;;;;;;10.13;6.15;;;;;;;10.68;100.00;101436.84;6071813;23;20392;-74
2023/10/23 10:48:51;;;;;;;9.52;6.20;;;;;;;10.75;100.00;101426.75;6095274;23;20009;-74
2023/10/23 10:51:24;;;;;;;10.60;6.70;;;;;;;10.81;100.00;101433.75;6095855;23;20068;-73
2023/10/23 10:54:03;;;;;;;9.95;4.97;;;;;;;10.89;100.00;101427.94;6098025;23;20096;-74
2023/10/23 10:56:29;;;;;;;8.00;5.13;;;;;;;10.93;100.00;101429.88;6096545;23;20456;-73
2023/10/23 10:58:59;;;;;;;8.73;6.00;;;;;;;11.05;100.00;101427.03;6097575;23;20037;-74
2023/10/23 11:01:25;;;;;;;6.22;4.68;;;;;;;11.11;100.00;101428.69;6072019;23;20014;-74
2023/10/23 11:03:52;;;;;;;7.50;5.18;;;;;;;11.18;100.00;101415.06;6120653;23;20021;-75
2023/10/23 11:06:18;;;;;;;7.05;5.55;;;;;;;11.19;100.00;101422.03;6120002;23;20460;-74
2023/10/23 11:08:46;;;;;;;8.18;5.15;;;;;;;11.23;100.00;101416.94;6096998;23;20024;-73
2023/10/23 11:11:11;;;;;;;9.57;5.60;;;;;;;11.29;100.00;101413.25;6095004;23;20100;-74
2023/10/23 11:13:37;;;;;;;6.30;5.07;;;;;;;11.36;100.00;101413.81;6096378;23;20071;-74
2023/10/23 11:16:04;;;;;;;6.82;4.53;;;;;;;11.42;100.00;101410.13;6071627;23;20009;-73
2023/10/23 11:18:30;;;;;;;6.78;4.75;;;;;;;11.46;100.00;101412.03;6072074;23;20017;-73
2023/10/23 11:20:58;;;;;;;7.03;4.63;;;;;;;11.51;100.00;101418.47;6072717;23;20464;-74
2023/10/23 11:23:27;;;;;;;9.32;5.05;;;;;;;11.56;100.00;101410.47;6095964;23;20018;-76